sensor_id;sensor_type;location;lat;lon;timestamp;temperature;humidity
8595;DHT22;4335;48.860;9.198;2024-02-21T00:01:22;7.50;99.90
8595;DHT22;4335;48.860;9.198;2024-02-21T00:03:51;7.50;99.90
8595;DHT22;4335;48.860;9.198;2024-02-21T00:06:22;7.40;99.90
8595;DHT22;4335;48.860;9.198;2024-02-21T00:09:05;7.40;99.90
8595;DHT22;4335;48.860;9.198;2024-02-21T00:11:32;7.40;99.90
8595;DHT22;4335;48.860;9.198;2024-02-21T00:14:03;7.40;99.90
8595;DHT22;4335;48.860;9.198;2024-02-21T00:16:36;7.40;99.90
8595;DHT22;4335;48.860;9.198;2024-02-21T00:19:14;7.40;99.90
8595;DHT22;4335;48.860;9.198;2024-02-21T00:21:44;7.40;99.90
8595;DHT22;4335;48.860;9.198;2024-02-21T00:24:12;7.40;99.90
8595;DHT22;4335;48.860;9.198;2024-02-21T00:26:42;7.40;99.90
8595;DHT22;4335;48.860;9.198;2024-02-21T00:29:09;7.40;99.90
8595;DHT22;4335;48.860;9.198;2024-02-21T00:31:44;7.40;99.90
8595;DHT22;4335;48.860;9.198;2024-02-21T00:34:13;7.40;99.90
8595;DHT22;4335;48.860;9.198;2024-02-21T00:36:43;7.40;99.90
8595;DHT22;4335;48.860;9.198;2024-02-21T00:39:11;7.40;99.90
8595;DHT22;4335;48.860;9.198;2024-02-21T00:41:38;7.40;99.90
8595;DHT22;4335;48.860;9.198;2024-02-21T00:44:06;7.40;99.90
8595;DHT22;4335;48.860;9.198;2024-02-21T00:46:39;7.40;99.90
8595;DHT22;4335;48.860;9.198;2024-02-21T00:49:06;7.50;99.90
8595;DHT22;4335;48.860;9.198;2024-02-21T00:51:38;7.50;99.90
8595;DHT22;4335;48.860;9.198;2024-02-21T00:54:08;7.50;99.90
8595;DHT22;4335;48.860;9.198;2024-02-21T00:56:36;7.50;99.90
8595;DHT22;4335;48.860;9.198;2024-02-21T00:59:12;7.50;99.90
8595;DHT22;4335;48.860;9.198;2024-02-21T01:01:45;7.50;99.90
8595;DHT22;4335;48.860;9.198;2024-02-21T01:04:16;7.50;99.90
8595;DHT22;4335;48.860;9.198;2024-02-21T01:06:44;7.50;99.90
8595;DHT22;4335;48.860;9.198;2024-02-21T01:09:12;7.50;99.90
8595;DHT22;4335;48.860;9.198;2024-02-21T01:11:42;7.50;99.90
8595;DHT22;4335;48.860;9.198;2024-02-21T01:14:10;7.50;99.90
8595;DHT22;4335;48.860;9.198;2024-02-21T01:16:38;7.50;99.90
8595;DHT22;4335;48.860;9.198;2024-02-21T01:19:08;7.50;99.90
8595;DHT22;4335;48.860;9.198;2024-02-21T01:21:35;7.50;99.90
8595;DHT22;4335;48.860;9.198;2024-02-21T01:24:05;7.40;99.90
8595;DHT22;4335;48.860;9.198;2024-02-21T01:26:32;7.50;99.90
8595;DHT22;4335;48.860;9.198;2024-02-21T01:28:59;7.50;99.90
8595;DHT22;4335;48.860;9.198;2024-02-21T01:31:27;7.50;99.90
8595;DHT22;4335;48.860;9.198;2024-02-21T01:33:57;7.50;99.90
8595;DHT22;4335;48.860;9.198;2024-02-21T01:36:25;7.50;99.90
8595;DHT22;4335;48.860;9.198;2024-02-21T01:38:52;7.50;99.90
8595;DHT22;4335;48.860;9.198;2024-02-21T01:41:21;7.50;99.90
8595;DHT22;4335;48.860;9.198;2024-02-21T01:43:48;7.50;99.90
8595;DHT22;4335;48.860;9.198;2024-02-21T01:46:16;7.50;99.90
8595;DHT22;4335;48.860;9.198;2024-02-21T01:48:53;7.40;99.90
8595;DHT22;4335;48.860;9.198;2024-02-21T01:51:20;7.40;99.90
8595;DHT22;4335;48.860;9.198;2024-02-21T01:53:48;7.40;99.90
8595;DHT22;4335;48.860;9.198;2024-02-21T01:56:17;7.40;99.90
8595;DHT22;4335;48.860;9.198;2024-02-21T01:58:53;7.40;99.90
8595;DHT22;4335;48.860;9.198;2024-02-21T02:01:25;7.40;99.90
8595;DHT22;4335;48.860;9.198;2024-02-21T02:03:52;7.40;99.90
8595;DHT22;4335;48.860;9.198;2024-02-21T02:06:23;7.40;99.90
8595;DHT22;4335;48.860;9.198;2024-02-21T02:08:51;7.40;99.90
8595;DHT22;4335;48.860;9.198;2024-02-21T02:11:21;7.40;99.90
8595;DHT22;4335;48.860;9.198;2024-02-21T02:13:50;7.40;99.90
8595;DHT22;4335;48.860;9.198;2024-02-21T02:16:17;7.50;99.90
8595;DHT22;4335;48.860;9.198;2024-02-21T02:18:45;7.50;99.90
8595;DHT22;4335;48.860;9.198;2024-02-21T02:21:37;7.50;99.90
8595;DHT22;4335;48.860;9.198;2024-02-21T02:24:25;7.50;99.90
8595;DHT22;4335;48.860;9.198;2024-02-21T02:26:55;7.50;99.90
8595;DHT22;4335;48.860;9.198;2024-02-21T02:29:23;7.50;99.90
8595;DHT22;4335;48.860;9.198;2024-02-21T02:32:03;7.50;99.90
8595;DHT22;4335;48.860;9.198;2024-02-21T02:34:30;7.50;99.90
8595;DHT22;4335;48.860;9.198;2024-02-21T02:37:03;7.50;99.90
8595;DHT22;4335;48.860;9.198;2024-02-21T02:39:32;7.50;99.90
8595;DHT22;4335;48.860;9.198;2024-02-21T02:42:06;7.50;99.90
8595;DHT22;4335;48.860;9.198;2024-02-21T02:44:37;7.50;99.90
8595;DHT22;4335;48.860;9.198;2024-02-21T02:47:08;7.40;99.90
8595;DHT22;4335;48.860;9.198;2024-02-21T02:49:35;7.40;99.90
8595;DHT22;4335;48.860;9.198;2024-02-21T02:52:12;7.40;99.90
8595;DHT22;4335;48.860;9.198;2024-02-21T02:54:40;7.40;99.90
8595;DHT22;4335;48.860;9.198;2024-02-21T02:57:11;7.50;99.90
8595;DHT22;4335;48.860;9.198;2024-02-21T02:59:47;7.50;99.90
8595;DHT22;4335;48.860;9.198;2024-02-21T03:02:14;7.50;99.90
8595;DHT22;4335;48.860;9.198;2024-02-21T03:04:41;7.50;99.90
8595;DHT22;4335;48.860;9.198;2024-02-21T03:07:13;7.50;99.90
8595;DHT22;4335;48.860;9.198;2024-02-21T03:09:48;7.50;99.90
8595;DHT22;4335;48.860;9.198;2024-02-21T03:12:21;7.50;99.90
8595;DHT22;4335;48.860;9.198;2024-02-21T03:14:53;7.60;99.90
8595;DHT22;4335;48.860;9.198;2024-02-21T03:17:21;7.50;99.90
8595;DHT22;4335;48.860;9.198;2024-02-21T03:19:49;7.50;99.90
8595;DHT22;4335;48.860;9.198;2024-02-21T03:22:16;7.50;99.90
8595;DHT22;4335;48.860;9.198;2024-02-21T03:24:48;7.50;99.90
8595;DHT22;4335;48.860;9.198;2024-02-21T03:27:21;7.50;99.90
8595;DHT22;4335;48.860;9.198;2024-02-21T03:29:49;7.50;99.90
8595;DHT22;4335;48.860;9.198;2024-02-21T03:32:16;7.50;99.90
8595;DHT22;4335;48.860;9.198;2024-02-21T03:34:50;7.40;99.90
8595;DHT22;4335;48.860;9.198;2024-02-21T03:37:23;7.40;99.90
8595;DHT22;4335;48.860;9.198;2024-02-21T03:39:55;7.40;99.90
8595;DHT22;4335;48.860;9.198;2024-02-21T03:42:23;7.40;99.90
8595;DHT22;4335;48.860;9.198;2024-02-21T03:44:55;7.40;99.90
8595;DHT22;4335;48.860;9.198;2024-02-21T03:47:23;7.40;99.90
8595;DHT22;4335;48.860;9.198;2024-02-21T03:49:50;7.40;99.90
8595;DHT22;4335;48.860;9.198;2024-02-21T03:52:24;7.40;99.90
8595;DHT22;4335;48.860;9.198;2024-02-21T03:54:51;7.40;99.90
8595;DHT22;4335;48.860;9.198;2024-02-21T03:57:22;7.40;99.90
8595;DHT22;4335;48.860;9.198;2024-02-21T03:59:50;7.30;99.90
8595;DHT22;4335;48.860;9.198;2024-02-21T04:02:18;7.30;99.90
8595;DHT22;4335;48.860;9.198;2024-02-21T04:04:45;7.30;99.90
8595;DHT22;4335;48.860;9.198;2024-02-21T04:07:19;7.30;99.90
8595;DHT22;4335;48.860;9.198;2024-02-21T04:09:53;7.30;99.90
8595;DHT22;4335;48.860;9.198;2024-02-21T04:12:24;7.20;99.90
8595;DHT22;4335;48.860;9.198;2024-02-21T04:14:55;7.20;99.90
8595;DHT22;4335;48.860;9.198;2024-02-21T04:17:22;7.20;99.90
8595;DHT22;4335;48.860;9.198;2024-02-21T04:19:50;7.20;99.90
8595;DHT22;4335;48.860;9.198;2024-02-21T04:22:20;7.20;99.90
8595;DHT22;4335;48.860;9.198;2024-02-21T04:24:47;7.20;99.90
8595;DHT22;4335;48.860;9.198;2024-02-21T04:27:25;7.20;99.90
8595;DHT22;4335;48.860;9.198;2024-02-21T04:29:53;7.20;99.90
8595;DHT22;4335;48.860;9.198;2024-02-21T04:32:21;7.10;99.90
8595;DHT22;4335;48.860;9.198;2024-02-21T04:34:48;7.10;99.90
8595;DHT22;4335;48.860;9.198;2024-02-21T04:37:25;7.00;99.90
8595;DHT22;4335;48.860;9.198;2024-02-21T04:40:01;7.00;99.90
8595;DHT22;4335;48.860;9.198;2024-02-21T04:42:36;6.90;99.90
8595;DHT22;4335;48.860;9.198;2024-02-21T04:45:07;6.90;99.90
8595;DHT22;4335;48.860;9.198;2024-02-21T04:47:37;6.90;99.90
8595;DHT22;4335;48.860;9.198;2024-02-21T04:50:08;6.80;99.90
8595;DHT22;4335;48.860;9.198;2024-02-21T04:52:38;6.80;99.90
8595;DHT22;4335;48.860;9.198;2024-02-21T04:55:06;6.80;99.90
8595;DHT22;4335;48.860;9.198;2024-02-21T04:57:38;6.80;99.90
8595;DHT22;4335;48.860;9.198;2024-02-21T05:00:24;6.80;99.90
8595;DHT22;4335;48.860;9.198;2024-02-21T05:02:53;6.80;99.90
8595;DHT22;4335;48.860;9.198;2024-02-21T05:05:29;6.70;99.90
8595;DHT22;4335;48.860;9.198;2024-02-21T05:07:56;6.70;99.90
8595;DHT22;4335;48.860;9.198;2024-02-21T05:10:27;6.70;99.90
8595;DHT22;4335;48.860;9.198;2024-02-21T05:12:56;6.70;99.90
8595;DHT22;4335;48.860;9.198;2024-02-21T05:15:23;6.60;99.90
8595;DHT22;4335;48.860;9.198;2024-02-21T05:17:50;6.60;99.90
8595;DHT22;4335;48.860;9.198;2024-02-21T05:20:18;6.60;99.90
8595;DHT22;4335;48.860;9.198;2024-02-21T05:22:45;6.60;99.90
8595;DHT22;4335;48.860;9.198;2024-02-21T05:25:15;6.60;99.90
8595;DHT22;4335;48.860;9.198;2024-02-21T05:27:42;6.50;99.90
8595;DHT22;4335;48.860;9.198;2024-02-21T05:30:12;6.50;99.90
8595;DHT22;4335;48.860;9.198;2024-02-21T05:32:46;6.50;99.90
8595;DHT22;4335;48.860;9.198;2024-02-21T05:35:14;6.40;99.90
8595;DHT22;4335;48.860;9.198;2024-02-21T05:37:44;6.40;99.90
8595;DHT22;4335;48.860;9.198;2024-02-21T05:40:15;6.40;99.90
8595;DHT22;4335;48.860;9.198;2024-02-21T05:42:42;6.40;99.90
8595;DHT22;4335;48.860;9.198;2024-02-21T05:45:23;6.40;99.90
8595;DHT22;4335;48.860;9.198;2024-02-21T05:47:53;6.40;99.90
8595;DHT22;4335;48.860;9.198;2024-02-21T05:50:21;6.40;99.90
8595;DHT22;4335;48.860;9.198;2024-02-21T05:52:51;6.40;99.90
8595;DHT22;4335;48.860;9.198;2024-02-21T05:55:22;6.40;99.90
8595;DHT22;4335;48.860;9.198;2024-02-21T05:57:56;6.30;99.90
8595;DHT22;4335;48.860;9.198;2024-02-21T06:00:33;6.30;99.90
8595;DHT22;4335;48.860;9.198;2024-02-21T06:03:04;6.30;99.90
8595;DHT22;4335;48.860;9.198;2024-02-21T06:05:36;6.20;99.90
8595;DHT22;4335;48.860;9.198;2024-02-21T06:08:10;6.20;99.90
8595;DHT22;4335;48.860;9.198;2024-02-21T06:10:37;6.20;99.90
8595;DHT22;4335;48.860;9.198;2024-02-21T06:13:05;6.20;99.90
8595;DHT22;4335;48.860;9.198;2024-02-21T06:15:36;6.30;99.90
8595;DHT22;4335;48.860;9.198;2024-02-21T06:18:04;6.20;99.90
8595;DHT22;4335;48.860;9.198;2024-02-21T06:20:34;6.20;99.90
8595;DHT22;4335;48.860;9.198;2024-02-21T06:23:12;6.30;99.90
8595;DHT22;4335;48.860;9.198;2024-02-21T06:25:42;6.20;99.90
8595;DHT22;4335;48.860;9.198;2024-02-21T06:28:25;6.20;99.90
8595;DHT22;4335;48.860;9.198;2024-02-21T06:30:54;6.30;99.90
8595;DHT22;4335;48.860;9.198;2024-02-21T06:33:24;6.30;99.90
8595;DHT22;4335;48.860;9.198;2024-02-21T06:35:51;6.30;99.90
8595;DHT22;4335;48.860;9.198;2024-02-21T06:38:25;6.30;99.90
8595;DHT22;4335;48.860;9.198;2024-02-21T06:40:56;6.40;99.90
8595;DHT22;4335;48.860;9.198;2024-02-21T06:43:24;6.40;99.90
8595;DHT22;4335;48.860;9.198;2024-02-21T06:45:56;6.40;99.90
8595;DHT22;4335;48.860;9.198;2024-02-21T06:48:23;6.50;99.90
8595;DHT22;4335;48.860;9.198;2024-02-21T06:50:53;6.50;99.90
8595;DHT22;4335;48.860;9.198;2024-02-21T06:53:21;6.60;99.90
8595;DHT22;4335;48.860;9.198;2024-02-21T06:55:48;6.60;99.90
8595;DHT22;4335;48.860;9.198;2024-02-21T06:58:15;6.70;99.90
8595;DHT22;4335;48.860;9.198;2024-02-21T07:00:58;6.80;99.90
8595;DHT22;4335;48.860;9.198;2024-02-21T07:03:25;6.90;99.90
8595;DHT22;4335;48.860;9.198;2024-02-21T07:05:58;6.90;99.90
8595;DHT22;4335;48.860;9.198;2024-02-21T07:08:26;6.90;99.90
8595;DHT22;4335;48.860;9.198;2024-02-21T07:10:53;7.00;99.90
8595;DHT22;4335;48.860;9.198;2024-02-21T07:13:21;7.10;99.90
8595;DHT22;4335;48.860;9.198;2024-02-21T07:15:48;7.10;99.90
8595;DHT22;4335;48.860;9.198;2024-02-21T07:18:26;7.00;99.90
8595;DHT22;4335;48.860;9.198;2024-02-21T07:20:53;7.10;99.90
8595;DHT22;4335;48.860;9.198;2024-02-21T07:23:21;7.20;99.90
8595;DHT22;4335;48.860;9.198;2024-02-21T07:25:51;7.10;99.90
8595;DHT22;4335;48.860;9.198;2024-02-21T07:28:19;7.20;99.90
8595;DHT22;4335;48.860;9.198;2024-02-21T07:30:46;7.20;99.90
8595;DHT22;4335;48.860;9.198;2024-02-21T07:33:17;7.30;99.90
8595;DHT22;4335;48.860;9.198;2024-02-21T07:35:46;7.40;99.90
8595;DHT22;4335;48.860;9.198;2024-02-21T07:38:13;7.50;99.90
8595;DHT22;4335;48.860;9.198;2024-02-21T07:40:44;7.60;99.90
8595;DHT22;4335;48.860;9.198;2024-02-21T07:43:12;7.80;99.90
8595;DHT22;4335;48.860;9.198;2024-02-21T07:45:39;7.90;99.90
8595;DHT22;4335;48.860;9.198;2024-02-21T07:48:07;8.00;99.90
8595;DHT22;4335;48.860;9.198;2024-02-21T07:50:41;8.20;99.90
8595;DHT22;4335;48.860;9.198;2024-02-21T07:53:09;8.30;99.90
8595;DHT22;4335;48.860;9.198;2024-02-21T07:55:37;8.40;99.90
8595;DHT22;4335;48.860;9.198;2024-02-21T07:58:10;8.40;99.90
8595;DHT22;4335;48.860;9.198;2024-02-21T08:00:40;8.50;99.90
8595;DHT22;4335;48.860;9.198;2024-02-21T08:03:07;8.60;99.90
8595;DHT22;4335;48.860;9.198;2024-02-21T08:05:37;8.70;99.90
8595;DHT22;4335;48.860;9.198;2024-02-21T08:08:12;8.90;99.90
8595;DHT22;4335;48.860;9.198;2024-02-21T08:10:46;9.00;99.90
8595;DHT22;4335;48.860;9.198;2024-02-21T08:13:14;9.20;99.90
8595;DHT22;4335;48.860;9.198;2024-02-21T08:15:41;9.30;99.90
8595;DHT22;4335;48.860;9.198;2024-02-21T08:18:11;9.30;99.90
8595;DHT22;4335;48.860;9.198;2024-02-21T08:20:42;9.50;99.90
8595;DHT22;4335;48.860;9.198;2024-02-21T08:23:16;9.60;99.90
8595;DHT22;4335;48.860;9.198;2024-02-21T08:25:46;9.70;99.90
8595;DHT22;4335;48.860;9.198;2024-02-21T08:28:14;9.80;99.90
8595;DHT22;4335;48.860;9.198;2024-02-21T08:30:46;9.90;99.90
8595;DHT22;4335;48.860;9.198;2024-02-21T08:33:14;10.00;99.90
8595;DHT22;4335;48.860;9.198;2024-02-21T08:35:42;10.10;99.90
8595;DHT22;4335;48.860;9.198;2024-02-21T08:38:10;10.20;99.90
8595;DHT22;4335;48.860;9.198;2024-02-21T08:40:39;10.30;99.90
8595;DHT22;4335;48.860;9.198;2024-02-21T08:43:11;10.40;99.90
8595;DHT22;4335;48.860;9.198;2024-02-21T08:45:38;10.50;99.90
8595;DHT22;4335;48.860;9.198;2024-02-21T08:48:06;10.60;99.90
8595;DHT22;4335;48.860;9.198;2024-02-21T08:50:37;10.60;99.90
8595;DHT22;4335;48.860;9.198;2024-02-21T08:53:13;10.70;99.90
8595;DHT22;4335;48.860;9.198;2024-02-21T08:55:43;10.80;99.90
8595;DHT22;4335;48.860;9.198;2024-02-21T08:58:18;10.80;99.90
8595;DHT22;4335;48.860;9.198;2024-02-21T09:00:49;11.00;99.90
8595;DHT22;4335;48.860;9.198;2024-02-21T09:03:19;11.00;99.90
8595;DHT22;4335;48.860;9.198;2024-02-21T09:05:47;11.10;99.90
8595;DHT22;4335;48.860;9.198;2024-02-21T09:08:17;11.20;99.90
8595;DHT22;4335;48.860;9.198;2024-02-21T09:10:49;11.10;99.90
8595;DHT22;4335;48.860;9.198;2024-02-21T09:13:17;11.20;99.90
8595;DHT22;4335;48.860;9.198;2024-02-21T09:15:53;11.20;99.90
8595;DHT22;4335;48.860;9.198;2024-02-21T09:18:23;11.30;99.90
8595;DHT22;4335;48.860;9.198;2024-02-21T09:20:51;11.30;99.90
8595;DHT22;4335;48.860;9.198;2024-02-21T09:23:18;11.30;99.90
8595;DHT22;4335;48.860;9.198;2024-02-21T09:25:46;11.40;99.90
8595;DHT22;4335;48.860;9.198;2024-02-21T09:28:15;11.50;99.90
8595;DHT22;4335;48.860;9.198;2024-02-21T09:30:45;11.60;99.90
8595;DHT22;4335;48.860;9.198;2024-02-21T09:33:16;11.60;99.90
8595;DHT22;4335;48.860;9.198;2024-02-21T09:35:50;11.70;99.90
8595;DHT22;4335;48.860;9.198;2024-02-21T09:38:19;11.70;99.90
8595;DHT22;4335;48.860;9.198;2024-02-21T09:41:04;11.80;99.90
8595;DHT22;4335;48.860;9.198;2024-02-21T09:43:41;12.00;99.90
8595;DHT22;4335;48.860;9.198;2024-02-21T09:46:15;12.00;99.90
8595;DHT22;4335;48.860;9.198;2024-02-21T09:48:58;12.00;99.90
8595;DHT22;4335;48.860;9.198;2024-02-21T09:51:34;12.00;99.90
8595;DHT22;4335;48.860;9.198;2024-02-21T09:54:09;12.20;99.90
8595;DHT22;4335;48.860;9.198;2024-02-21T09:56:37;12.10;99.90
8595;DHT22;4335;48.860;9.198;2024-02-21T09:59:07;12.30;99.90
8595;DHT22;4335;48.860;9.198;2024-02-21T10:01:35;12.40;99.90
8595;DHT22;4335;48.860;9.198;2024-02-21T10:04:08;12.50;99.90
8595;DHT22;4335;48.860;9.198;2024-02-21T10:06:36;12.60;99.90
8595;DHT22;4335;48.860;9.198;2024-02-21T10:09:06;12.70;99.90
8595;DHT22;4335;48.860;9.198;2024-02-21T10:11:33;12.80;99.90
8595;DHT22;4335;48.860;9.198;2024-02-21T10:14:07;12.90;99.90
8595;DHT22;4335;48.860;9.198;2024-02-21T10:16:40;13.00;99.90
8595;DHT22;4335;48.860;9.198;2024-02-21T10:19:19;13.10;99.90
8595;DHT22;4335;48.860;9.198;2024-02-21T10:22:03;13.10;99.90
8595;DHT22;4335;48.860;9.198;2024-02-21T10:24:30;13.40;99.90
8595;DHT22;4335;48.860;9.198;2024-02-21T10:27:06;13.90;99.90
8595;DHT22;4335;48.860;9.198;2024-02-21T10:29:39;14.90;99.90
8595;DHT22;4335;48.860;9.198;2024-02-21T10:32:08;15.70;99.90
8595;DHT22;4335;48.860;9.198;2024-02-21T10:34:35;16.60;99.90
8595;DHT22;4335;48.860;9.198;2024-02-21T10:37:04;17.20;99.90
8595;DHT22;4335;48.860;9.198;2024-02-21T10:39:36;17.80;99.90
8595;DHT22;4335;48.860;9.198;2024-02-21T10:42:05;18.20;99.70
8595;DHT22;4335;48.860;9.198;2024-02-21T10:44:39;18.60;97.30
8595;DHT22;4335;48.860;9.198;2024-02-21T10:47:11;18.80;95.80
8595;DHT22;4335;48.860;9.198;2024-02-21T10:49:44;18.60;95.60
8595;DHT22;4335;48.860;9.198;2024-02-21T10:52:14;18.10;95.50
8595;DHT22;4335;48.860;9.198;2024-02-21T10:54:55;17.50;96.10
8595;DHT22;4335;48.860;9.198;2024-02-21T10:57:24;16.90;97.50
8595;DHT22;4335;48.860;9.198;2024-02-21T11:00:03;16.50;98.50
8595;DHT22;4335;48.860;9.198;2024-02-21T11:02:40;16.20;99.20
8595;DHT22;4335;48.860;9.198;2024-02-21T11:05:09;16.00;99.90
8595;DHT22;4335;48.860;9.198;2024-02-21T11:07:40;15.60;99.90
8595;DHT22;4335;48.860;9.198;2024-02-21T11:10:20;15.50;99.90
8595;DHT22;4335;48.860;9.198;2024-02-21T11:12:53;15.30;99.90
8595;DHT22;4335;48.860;9.198;2024-02-21T11:15:26;15.00;99.90
8595;DHT22;4335;48.860;9.198;2024-02-21T11:17:55;15.00;99.90
8595;DHT22;4335;48.860;9.198;2024-02-21T11:20:35;14.90;99.90
8595;DHT22;4335;48.860;9.198;2024-02-21T11:23:05;14.60;99.90
8595;DHT22;4335;48.860;9.198;2024-02-21T11:25:32;14.60;99.90
8595;DHT22;4335;48.860;9.198;2024-02-21T11:28:05;14.70;99.90
8595;DHT22;4335;48.860;9.198;2024-02-21T11:30:44;14.70;99.90
8595;DHT22;4335;48.860;9.198;2024-02-21T11:33:12;14.60;99.90
8595;DHT22;4335;48.860;9.198;2024-02-21T11:35:40;14.60;99.90
8595;DHT22;4335;48.860;9.198;2024-02-21T11:38:11;14.70;99.90
8595;DHT22;4335;48.860;9.198;2024-02-21T11:40:41;14.70;99.90
8595;DHT22;4335;48.860;9.198;2024-02-21T11:43:18;14.70;99.90
8595;DHT22;4335;48.860;9.198;2024-02-21T11:45:58;14.70;99.90
8595;DHT22;4335;48.860;9.198;2024-02-21T11:48:29;14.60;99.90
8595;DHT22;4335;48.860;9.198;2024-02-21T11:50:57;14.60;99.90
8595;DHT22;4335;48.860;9.198;2024-02-21T11:53:26;14.60;99.90
8595;DHT22;4335;48.860;9.198;2024-02-21T11:56:00;14.50;99.90
8595;DHT22;4335;48.860;9.198;2024-02-21T11:58:28;14.50;99.90
8595;DHT22;4335;48.860;9.198;2024-02-21T12:03:38;14.40;99.90
8595;DHT22;4335;48.860;9.198;2024-02-21T12:06:10;14.30;99.90
8595;DHT22;4335;48.860;9.198;2024-02-21T12:08:46;14.20;99.90
8595;DHT22;4335;48.860;9.198;2024-02-21T12:11:30;14.20;99.90
8595;DHT22;4335;48.860;9.198;2024-02-21T12:14:01;14.30;99.90
8595;DHT22;4335;48.860;9.198;2024-02-21T12:16:38;14.40;99.90
8595;DHT22;4335;48.860;9.198;2024-02-21T12:19:05;14.40;99.90
8595;DHT22;4335;48.860;9.198;2024-02-21T12:21:34;14.20;99.90
8595;DHT22;4335;48.860;9.198;2024-02-21T12:24:12;14.30;99.90
8595;DHT22;4335;48.860;9.198;2024-02-21T12:26:40;14.30;99.90
8595;DHT22;4335;48.860;9.198;2024-02-21T12:29:08;14.30;99.90
8595;DHT22;4335;48.860;9.198;2024-02-21T12:31:37;14.40;99.90
8595;DHT22;4335;48.860;9.198;2024-02-21T12:34:05;14.40;99.90
8595;DHT22;4335;48.860;9.198;2024-02-21T12:36:32;14.50;99.90
8595;DHT22;4335;48.860;9.198;2024-02-21T12:39:00;14.40;99.90
8595;DHT22;4335;48.860;9.198;2024-02-21T12:41:28;14.30;99.90
8595;DHT22;4335;48.860;9.198;2024-02-21T12:43:58;14.20;99.90
8595;DHT22;4335;48.860;9.198;2024-02-21T12:46:25;14.20;99.90
8595;DHT22;4335;48.860;9.198;2024-02-21T12:48:54;14.20;99.90
8595;DHT22;4335;48.860;9.198;2024-02-21T12:51:21;14.30;99.90
8595;DHT22;4335;48.860;9.198;2024-02-21T12:53:54;14.30;99.90
8595;DHT22;4335;48.860;9.198;2024-02-21T12:56:25;14.40;99.90
8595;DHT22;4335;48.860;9.198;2024-02-21T12:58:53;14.40;99.90
8595;DHT22;4335;48.860;9.198;2024-02-21T13:01:20;14.40;99.90
8595;DHT22;4335;48.860;9.198;2024-02-21T13:03:48;14.40;99.90
8595;DHT22;4335;48.860;9.198;2024-02-21T13:06:16;14.40;99.90
8595;DHT22;4335;48.860;9.198;2024-02-21T13:08:44;14.30;99.90
8595;DHT22;4335;48.860;9.198;2024-02-21T13:11:12;14.40;99.90
8595;DHT22;4335;48.860;9.198;2024-02-21T13:13:40;14.40;99.90
8595;DHT22;4335;48.860;9.198;2024-02-21T13:16:07;14.50;99.90
8595;DHT22;4335;48.860;9.198;2024-02-21T13:18:36;14.40;99.90
8595;DHT22;4335;48.860;9.198;2024-02-21T13:21:08;14.40;99.90
8595;DHT22;4335;48.860;9.198;2024-02-21T13:23:41;14.40;99.90
8595;DHT22;4335;48.860;9.198;2024-02-21T13:26:13;14.30;99.90
8595;DHT22;4335;48.860;9.198;2024-02-21T13:28:41;14.00;99.90
8595;DHT22;4335;48.860;9.198;2024-02-21T13:31:19;14.10;99.90
8595;DHT22;4335;48.860;9.198;2024-02-21T13:33:47;14.00;99.90
8595;DHT22;4335;48.860;9.198;2024-02-21T13:36:25;14.10;99.90
8595;DHT22;4335;48.860;9.198;2024-02-21T13:38:59;14.10;99.90
8595;DHT22;4335;48.860;9.198;2024-02-21T13:41:29;14.10;99.90
8595;DHT22;4335;48.860;9.198;2024-02-21T13:43:57;14.10;99.90
8595;DHT22;4335;48.860;9.198;2024-02-21T13:46:29;14.10;99.90
8595;DHT22;4335;48.860;9.198;2024-02-21T13:49:04;14.10;99.90
8595;DHT22;4335;48.860;9.198;2024-02-21T13:51:36;14.10;99.90
8595;DHT22;4335;48.860;9.198;2024-02-21T13:54:05;14.10;99.90
8595;DHT22;4335;48.860;9.198;2024-02-21T13:56:35;14.20;99.90
8595;DHT22;4335;48.860;9.198;2024-02-21T13:59:05;14.20;99.90
8595;DHT22;4335;48.860;9.198;2024-02-21T14:01:32;14.20;99.90
8595;DHT22;4335;48.860;9.198;2024-02-21T14:04:01;14.20;99.90
8595;DHT22;4335;48.860;9.198;2024-02-21T14:06:29;14.20;99.90
8595;DHT22;4335;48.860;9.198;2024-02-21T14:08:57;14.10;99.90
8595;DHT22;4335;48.860;9.198;2024-02-21T14:11:26;14.20;99.90
8595;DHT22;4335;48.860;9.198;2024-02-21T14:13:54;14.20;99.90
8595;DHT22;4335;48.860;9.198;2024-02-21T14:16:32;14.10;99.90
8595;DHT22;4335;48.860;9.198;2024-02-21T14:19:02;14.00;99.90
8595;DHT22;4335;48.860;9.198;2024-02-21T14:21:30;13.90;99.90
8595;DHT22;4335;48.860;9.198;2024-02-21T14:23:58;13.80;99.90
8595;DHT22;4335;48.860;9.198;2024-02-21T14:26:30;13.70;99.90
8595;DHT22;4335;48.860;9.198;2024-02-21T14:28:57;13.70;99.90
8595;DHT22;4335;48.860;9.198;2024-02-21T14:31:25;13.60;99.90
8595;DHT22;4335;48.860;9.198;2024-02-21T14:33:55;13.40;99.90
8595;DHT22;4335;48.860;9.198;2024-02-21T14:36:26;13.40;99.90
8595;DHT22;4335;48.860;9.198;2024-02-21T14:38:57;13.40;99.90
8595;DHT22;4335;48.860;9.198;2024-02-21T14:41:32;13.40;99.90
8595;DHT22;4335;48.860;9.198;2024-02-21T14:44:04;13.40;99.90
8595;DHT22;4335;48.860;9.198;2024-02-21T14:46:31;13.40;99.90
8595;DHT22;4335;48.860;9.198;2024-02-21T14:48:58;13.40;99.90
8595;DHT22;4335;48.860;9.198;2024-02-21T14:51:28;13.40;99.90
8595;DHT22;4335;48.860;9.198;2024-02-21T14:53:56;13.30;99.90
8595;DHT22;4335;48.860;9.198;2024-02-21T14:56:23;13.30;99.90
8595;DHT22;4335;48.860;9.198;2024-02-21T14:58:54;13.30;99.90
8595;DHT22;4335;48.860;9.198;2024-02-21T15:01:25;13.30;99.90
8595;DHT22;4335;48.860;9.198;2024-02-21T15:03:55;13.40;99.90
8595;DHT22;4335;48.860;9.198;2024-02-21T15:06:24;13.40;99.90
8595;DHT22;4335;48.860;9.198;2024-02-21T15:08:51;13.40;99.90
8595;DHT22;4335;48.860;9.198;2024-02-21T15:11:19;13.30;99.90
8595;DHT22;4335;48.860;9.198;2024-02-21T15:13:48;13.30;99.90
8595;DHT22;4335;48.860;9.198;2024-02-21T15:16:20;13.30;99.90
8595;DHT22;4335;48.860;9.198;2024-02-21T15:18:50;13.30;99.90
8595;DHT22;4335;48.860;9.198;2024-02-21T15:21:20;13.30;99.90
8595;DHT22;4335;48.860;9.198;2024-02-21T15:23:48;13.30;99.90
8595;DHT22;4335;48.860;9.198;2024-02-21T15:26:22;13.20;99.90
8595;DHT22;4335;48.860;9.198;2024-02-21T15:28:50;13.20;99.90
8595;DHT22;4335;48.860;9.198;2024-02-21T15:31:22;13.20;99.90
8595;DHT22;4335;48.860;9.198;2024-02-21T15:33:53;13.10;99.90
8595;DHT22;4335;48.860;9.198;2024-02-21T15:36:21;13.10;99.90
8595;DHT22;4335;48.860;9.198;2024-02-21T15:38:49;13.10;99.70
8595;DHT22;4335;48.860;9.198;2024-02-21T15:41:16;13.10;99.20
8595;DHT22;4335;48.860;9.198;2024-02-21T15:43:50;13.00;98.40
8595;DHT22;4335;48.860;9.198;2024-02-21T15:46:19;13.00;98.00
8595;DHT22;4335;48.860;9.198;2024-02-21T15:48:48;13.00;97.10
8595;DHT22;4335;48.860;9.198;2024-02-21T15:51:20;13.00;97.50
8595;DHT22;4335;48.860;9.198;2024-02-21T15:53:48;13.00;97.30
8595;DHT22;4335;48.860;9.198;2024-02-21T15:56:15;12.90;96.50
8595;DHT22;4335;48.860;9.198;2024-02-21T15:58:43;12.90;97.80
8595;DHT22;4335;48.860;9.198;2024-02-21T16:01:10;12.80;98.30
8595;DHT22;4335;48.860;9.198;2024-02-21T16:03:38;12.80;98.20
8595;DHT22;4335;48.860;9.198;2024-02-21T16:06:07;12.80;97.20
8595;DHT22;4335;48.860;9.198;2024-02-21T16:08:35;12.80;96.50
8595;DHT22;4335;48.860;9.198;2024-02-21T16:11:13;12.80;96.20
8595;DHT22;4335;48.860;9.198;2024-02-21T16:13:42;12.70;96.50
8595;DHT22;4335;48.860;9.198;2024-02-21T16:16:17;12.70;96.40
8595;DHT22;4335;48.860;9.198;2024-02-21T16:18:45;12.70;96.80
8595;DHT22;4335;48.860;9.198;2024-02-21T16:21:17;12.60;96.20
8595;DHT22;4335;48.860;9.198;2024-02-21T16:23:53;12.60;97.10
8595;DHT22;4335;48.860;9.198;2024-02-21T16:26:20;12.60;96.70
8595;DHT22;4335;48.860;9.198;2024-02-21T16:28:51;12.60;96.70
8595;DHT22;4335;48.860;9.198;2024-02-21T16:31:19;12.50;97.70
8595;DHT22;4335;48.860;9.198;2024-02-21T16:33:46;12.50;99.50